Hadley, New York
Current Conditions -  °F | °C
As of 10:53 PM on Wednesday 17 Dec 2014 (Local Time) from KGFL Reporting Station
Overcast Overcast  
Wind Chill: 29°   Ceiling: 4100
Heat Index: 35°   Visibility: 10mi
Dew Point: 31°   Wind: 7mph
Humidity: 85%   Direction: 200°SSW
Pressure: 29.79"   Gusts: NA
Location:  43.32°N, 73.85°W
Report Text: KGFL 180353Z AUTO 20006KT 10SM OVC041 02/M01 A2979 RMK AO2 SLP096 T00171006
Loading
Personal Weather Stations






























Interactive Weather Map New forecast layout! Learn more

10-Day Weather Forecast

Advertisements
Track Severe Weather on mobile